sensor_id;sensor_type;location;lat;lon;timestamp;temperature;humidity
31074;DHT22;17730;53.552;9.940;2023-04-25T00:01:02;8.40;99.90
31074;DHT22;17730;53.552;9.940;2023-04-25T00:03:29;8.30;99.90
31074;DHT22;17730;53.552;9.940;2023-04-25T00:05:54;8.30;99.90
31074;DHT22;17730;53.552;9.940;2023-04-25T00:08:22;8.20;99.90
31074;DHT22;17730;53.552;9.940;2023-04-25T00:10:47;8.20;99.90
31074;DHT22;17730;53.552;9.940;2023-04-25T00:13:14;8.20;99.90
31074;DHT22;17730;53.552;9.940;2023-04-25T00:15:40;8.00;99.90
31074;DHT22;17730;53.552;9.940;2023-04-25T00:18:07;8.10;99.90
31074;DHT22;17730;53.552;9.940;2023-04-25T00:20:32;8.00;99.90
31074;DHT22;17730;53.552;9.940;2023-04-25T00:22:58;8.00;99.90
31074;DHT22;17730;53.552;9.940;2023-04-25T00:25:23;8.00;99.90
31074;DHT22;17730;53.552;9.940;2023-04-25T00:27:49;8.00;99.90
31074;DHT22;17730;53.552;9.940;2023-04-25T00:30:14;8.00;99.90
31074;DHT22;17730;53.552;9.940;2023-04-25T00:32:40;8.00;99.90
31074;DHT22;17730;53.552;9.940;2023-04-25T00:35:05;8.00;99.90
31074;DHT22;17730;53.552;9.940;2023-04-25T00:37:31;8.00;99.90
31074;DHT22;17730;53.552;9.940;2023-04-25T00:39:57;8.00;99.90
31074;DHT22;17730;53.552;9.940;2023-04-25T00:42:23;7.90;99.90
31074;DHT22;17730;53.552;9.940;2023-04-25T00:44:49;8.00;99.90
31074;DHT22;17730;53.552;9.940;2023-04-25T00:47:15;8.00;99.90
31074;DHT22;17730;53.552;9.940;2023-04-25T00:49:40;8.00;99.90
31074;DHT22;17730;53.552;9.940;2023-04-25T00:52:06;8.00;99.90
31074;DHT22;17730;53.552;9.940;2023-04-25T00:54:31;8.00;99.90
31074;DHT22;17730;53.552;9.940;2023-04-25T00:56:57;8.00;99.90
31074;DHT22;17730;53.552;9.940;2023-04-25T00:59:22;7.90;99.90
31074;DHT22;17730;53.552;9.940;2023-04-25T01:01:48;7.90;99.90
31074;DHT22;17730;53.552;9.940;2023-04-25T01:04:14;7.90;99.90
31074;DHT22;17730;53.552;9.940;2023-04-25T01:06:40;7.90;99.90
31074;DHT22;17730;53.552;9.940;2023-04-25T01:09:05;7.90;99.90
31074;DHT22;17730;53.552;9.940;2023-04-25T01:11:31;7.90;99.90
31074;DHT22;17730;53.552;9.940;2023-04-25T01:13:56;7.90;99.90
31074;DHT22;17730;53.552;9.940;2023-04-25T01:16:22;7.90;99.90
31074;DHT22;17730;53.552;9.940;2023-04-25T01:18:49;7.80;99.90
31074;DHT22;17730;53.552;9.940;2023-04-25T01:21:15;7.80;99.90
31074;DHT22;17730;53.552;9.940;2023-04-25T01:23:41;7.70;99.90
31074;DHT22;17730;53.552;9.940;2023-04-25T01:26:08;7.70;99.90
31074;DHT22;17730;53.552;9.940;2023-04-25T01:28:34;7.70;99.90
31074;DHT22;17730;53.552;9.940;2023-04-25T01:31:00;7.70;99.90
31074;DHT22;17730;53.552;9.940;2023-04-25T01:33:26;7.60;99.90
31074;DHT22;17730;53.552;9.940;2023-04-25T01:35:51;7.60;99.90
31074;DHT22;17730;53.552;9.940;2023-04-25T01:38:17;7.60;99.90
31074;DHT22;17730;53.552;9.940;2023-04-25T01:40:42;7.50;99.90
31074;DHT22;17730;53.552;9.940;2023-04-25T01:43:09;7.50;99.90
31074;DHT22;17730;53.552;9.940;2023-04-25T01:45:37;7.50;99.90
31074;DHT22;17730;53.552;9.940;2023-04-25T01:48:07;7.50;99.90
31074;DHT22;17730;53.552;9.940;2023-04-25T01:50:32;7.50;99.90
31074;DHT22;17730;53.552;9.940;2023-04-25T01:52:58;7.50;99.90
31074;DHT22;17730;53.552;9.940;2023-04-25T01:55:23;7.50;99.90
31074;DHT22;17730;53.552;9.940;2023-04-25T01:57:49;7.50;99.90
31074;DHT22;17730;53.552;9.940;2023-04-25T02:00:14;7.50;99.90
31074;DHT22;17730;53.552;9.940;2023-04-25T02:02:40;7.50;99.90
31074;DHT22;17730;53.552;9.940;2023-04-25T02:05:06;7.40;99.90
31074;DHT22;17730;53.552;9.940;2023-04-25T02:07:31;7.40;99.90
31074;DHT22;17730;53.552;9.940;2023-04-25T02:09:57;7.40;99.90
31074;DHT22;17730;53.552;9.940;2023-04-25T02:12:22;7.30;99.90
31074;DHT22;17730;53.552;9.940;2023-04-25T02:14:48;7.30;99.90
31074;DHT22;17730;53.552;9.940;2023-04-25T02:17:13;7.30;99.90
31074;DHT22;17730;53.552;9.940;2023-04-25T02:19:39;7.40;99.90
31074;DHT22;17730;53.552;9.940;2023-04-25T02:22:04;7.30;99.90
31074;DHT22;17730;53.552;9.940;2023-04-25T02:24:30;7.30;99.90
31074;DHT22;17730;53.552;9.940;2023-04-25T02:26:57;7.20;99.90
31074;DHT22;17730;53.552;9.940;2023-04-25T02:29:22;7.20;99.90
31074;DHT22;17730;53.552;9.940;2023-04-25T02:31:48;7.20;99.90
31074;DHT22;17730;53.552;9.940;2023-04-25T02:34:13;7.20;99.90
31074;DHT22;17730;53.552;9.940;2023-04-25T02:36:39;7.20;99.90
31074;DHT22;17730;53.552;9.940;2023-04-25T02:39:04;7.20;99.90
31074;DHT22;17730;53.552;9.940;2023-04-25T02:41:30;7.10;99.90
31074;DHT22;17730;53.552;9.940;2023-04-25T02:43:55;7.10;99.90
31074;DHT22;17730;53.552;9.940;2023-04-25T02:46:21;7.10;99.90
31074;DHT22;17730;53.552;9.940;2023-04-25T02:48:46;7.10;99.90
31074;DHT22;17730;53.552;9.940;2023-04-25T02:51:12;7.10;99.90
31074;DHT22;17730;53.552;9.940;2023-04-25T02:53:37;7.10;99.90
31074;DHT22;17730;53.552;9.940;2023-04-25T02:56:03;7.10;99.90
31074;DHT22;17730;53.552;9.940;2023-04-25T02:58:29;7.10;99.90
31074;DHT22;17730;53.552;9.940;2023-04-25T03:00:54;7.10;99.90
31074;DHT22;17730;53.552;9.940;2023-04-25T03:03:20;7.10;99.90
31074;DHT22;17730;53.552;9.940;2023-04-25T03:05:49;7.10;99.90
31074;DHT22;17730;53.552;9.940;2023-04-25T03:08:16;7.00;99.90
31074;DHT22;17730;53.552;9.940;2023-04-25T03:10:42;7.00;99.90
31074;DHT22;17730;53.552;9.940;2023-04-25T03:13:08;7.00;99.90
31074;DHT22;17730;53.552;9.940;2023-04-25T03:15:34;6.90;99.90
31074;DHT22;17730;53.552;9.940;2023-04-25T03:17:59;6.90;99.90
31074;DHT22;17730;53.552;9.940;2023-04-25T03:20:25;6.80;99.90
31074;DHT22;17730;53.552;9.940;2023-04-25T03:22:51;6.80;99.90
31074;DHT22;17730;53.552;9.940;2023-04-25T03:25:17;6.70;99.90
31074;DHT22;17730;53.552;9.940;2023-04-25T03:27:42;6.70;99.90
31074;DHT22;17730;53.552;9.940;2023-04-25T03:30:08;6.50;99.90
31074;DHT22;17730;53.552;9.940;2023-04-25T03:32:34;6.40;99.90
31074;DHT22;17730;53.552;9.940;2023-04-25T03:35:00;6.40;99.90
31074;DHT22;17730;53.552;9.940;2023-04-25T03:37:26;6.40;99.90
31074;DHT22;17730;53.552;9.940;2023-04-25T03:39:52;6.40;99.90
31074;DHT22;17730;53.552;9.940;2023-04-25T03:42:18;6.30;99.90
31074;DHT22;17730;53.552;9.940;2023-04-25T03:44:43;6.40;99.90
31074;DHT22;17730;53.552;9.940;2023-04-25T03:47:09;6.40;99.90
31074;DHT22;17730;53.552;9.940;2023-04-25T03:49:35;6.40;99.90
31074;DHT22;17730;53.552;9.940;2023-04-25T03:52:01;6.40;99.90
31074;DHT22;17730;53.552;9.940;2023-04-25T03:54:30;6.50;99.90
31074;DHT22;17730;53.552;9.940;2023-04-25T03:56:58;6.50;99.90
31074;DHT22;17730;53.552;9.940;2023-04-25T03:59:24;6.50;99.90
31074;DHT22;17730;53.552;9.940;2023-04-25T04:01:52;6.50;99.90
31074;DHT22;17730;53.552;9.940;2023-04-25T04:04:18;6.50;99.90
31074;DHT22;17730;53.552;9.940;2023-04-25T04:06:44;6.50;99.90
31074;DHT22;17730;53.552;9.940;2023-04-25T04:09:11;6.40;99.90
31074;DHT22;17730;53.552;9.940;2023-04-25T04:11:38;6.40;99.90
31074;DHT22;17730;53.552;9.940;2023-04-25T04:14:06;6.40;99.90
31074;DHT22;17730;53.552;9.940;2023-04-25T04:16:33;6.30;99.90
31074;DHT22;17730;53.552;9.940;2023-04-25T04:18:59;6.30;99.90
31074;DHT22;17730;53.552;9.940;2023-04-25T04:21:25;6.30;99.90
31074;DHT22;17730;53.552;9.940;2023-04-25T04:23:53;6.30;99.90
31074;DHT22;17730;53.552;9.940;2023-04-25T04:26:20;6.20;99.90
31074;DHT22;17730;53.552;9.940;2023-04-25T04:28:51;6.20;99.90
31074;DHT22;17730;53.552;9.940;2023-04-25T04:31:22;6.20;99.90
31074;DHT22;17730;53.552;9.940;2023-04-25T04:33:48;6.30;99.90
31074;DHT22;17730;53.552;9.940;2023-04-25T04:36:14;6.30;99.90
31074;DHT22;17730;53.552;9.940;2023-04-25T04:38:41;6.30;99.90
31074;DHT22;17730;53.552;9.940;2023-04-25T04:41:07;6.40;99.90
31074;DHT22;17730;53.552;9.940;2023-04-25T04:43:35;6.50;99.90
31074;DHT22;17730;53.552;9.940;2023-04-25T04:46:02;6.50;99.90
31074;DHT22;17730;53.552;9.940;2023-04-25T04:48:31;6.50;99.90
31074;DHT22;17730;53.552;9.940;2023-04-25T04:51:03;6.50;99.90
31074;DHT22;17730;53.552;9.940;2023-04-25T04:53:29;6.50;99.90
31074;DHT22;17730;53.552;9.940;2023-04-25T04:55:54;6.50;99.90
31074;DHT22;17730;53.552;9.940;2023-04-25T04:58:22;6.60;99.90
31074;DHT22;17730;53.552;9.940;2023-04-25T05:00:48;6.70;99.90
31074;DHT22;17730;53.552;9.940;2023-04-25T05:03:14;6.70;99.90
31074;DHT22;17730;53.552;9.940;2023-04-25T05:05:40;6.70;99.90
31074;DHT22;17730;53.552;9.940;2023-04-25T05:08:06;6.60;99.90
31074;DHT22;17730;53.552;9.940;2023-04-25T05:10:31;6.60;99.90
31074;DHT22;17730;53.552;9.940;2023-04-25T05:12:57;6.60;99.90
31074;DHT22;17730;53.552;9.940;2023-04-25T05:15:22;6.60;99.90
31074;DHT22;17730;53.552;9.940;2023-04-25T05:17:48;6.60;99.90
31074;DHT22;17730;53.552;9.940;2023-04-25T05:20:13;6.60;99.90
31074;DHT22;17730;53.552;9.940;2023-04-25T05:22:39;6.50;99.90
31074;DHT22;17730;53.552;9.940;2023-04-25T05:25:07;6.50;99.90
31074;DHT22;17730;53.552;9.940;2023-04-25T05:27:32;6.50;99.90
31074;DHT22;17730;53.552;9.940;2023-04-25T05:29:58;6.50;99.90
31074;DHT22;17730;53.552;9.940;2023-04-25T05:32:23;6.50;99.90
31074;DHT22;17730;53.552;9.940;2023-04-25T05:34:50;6.50;99.90
31074;DHT22;17730;53.552;9.940;2023-04-25T05:37:16;6.50;99.90
31074;DHT22;17730;53.552;9.940;2023-04-25T05:39:41;6.60;99.90
31074;DHT22;17730;53.552;9.940;2023-04-25T05:42:07;6.60;99.90
31074;DHT22;17730;53.552;9.940;2023-04-25T05:44:32;6.70;99.90
31074;DHT22;17730;53.552;9.940;2023-04-25T05:46:58;6.80;99.90
31074;DHT22;17730;53.552;9.940;2023-04-25T05:49:23;6.80;99.90
31074;DHT22;17730;53.552;9.940;2023-04-25T05:51:49;6.80;99.90
31074;DHT22;17730;53.552;9.940;2023-04-25T05:54:14;6.90;99.90
31074;DHT22;17730;53.552;9.940;2023-04-25T05:56:39;6.90;99.90
31074;DHT22;17730;53.552;9.940;2023-04-25T05:59:05;6.90;99.90
31074;DHT22;17730;53.552;9.940;2023-04-25T06:01:31;6.90;99.90
31074;DHT22;17730;53.552;9.940;2023-04-25T06:03:57;6.90;99.90
31074;DHT22;17730;53.552;9.940;2023-04-25T06:06:22;7.00;99.90
31074;DHT22;17730;53.552;9.940;2023-04-25T06:08:48;7.10;99.90
31074;DHT22;17730;53.552;9.940;2023-04-25T06:11:13;7.20;99.90
31074;DHT22;17730;53.552;9.940;2023-04-25T06:13:39;7.20;99.90
31074;DHT22;17730;53.552;9.940;2023-04-25T06:16:04;7.20;99.90
31074;DHT22;17730;53.552;9.940;2023-04-25T06:18:30;7.30;99.90
31074;DHT22;17730;53.552;9.940;2023-04-25T06:20:55;7.30;99.90
31074;DHT22;17730;53.552;9.940;2023-04-25T06:23:21;7.20;99.90
31074;DHT22;17730;53.552;9.940;2023-04-25T06:25:46;7.30;99.90
31074;DHT22;17730;53.552;9.940;2023-04-25T06:28:12;7.30;99.90
31074;DHT22;17730;53.552;9.940;2023-04-25T06:30:37;7.30;99.90
31074;DHT22;17730;53.552;9.940;2023-04-25T06:33:03;7.20;99.90
31074;DHT22;17730;53.552;9.940;2023-04-25T06:35:28;7.00;99.90
31074;DHT22;17730;53.552;9.940;2023-04-25T06:37:54;7.00;99.90
31074;DHT22;17730;53.552;9.940;2023-04-25T06:40:19;6.90;99.90
31074;DHT22;17730;53.552;9.940;2023-04-25T06:42:45;7.00;99.90
31074;DHT22;17730;53.552;9.940;2023-04-25T06:45:10;7.10;99.90
31074;DHT22;17730;53.552;9.940;2023-04-25T06:47:36;7.10;99.90
31074;DHT22;17730;53.552;9.940;2023-04-25T06:50:02;7.20;99.90
31074;DHT22;17730;53.552;9.940;2023-04-25T06:52:27;7.20;99.90
31074;DHT22;17730;53.552;9.940;2023-04-25T06:54:53;7.30;99.90
31074;DHT22;17730;53.552;9.940;2023-04-25T06:57:18;7.50;99.90
31074;DHT22;17730;53.552;9.940;2023-04-25T06:59:46;7.60;99.90
31074;DHT22;17730;53.552;9.940;2023-04-25T07:02:11;7.80;99.90
31074;DHT22;17730;53.552;9.940;2023-04-25T07:04:37;7.80;99.90
31074;DHT22;17730;53.552;9.940;2023-04-25T07:07:02;7.90;99.90
31074;DHT22;17730;53.552;9.940;2023-04-25T07:09:29;7.90;99.90
31074;DHT22;17730;53.552;9.940;2023-04-25T07:11:55;7.80;99.90
31074;DHT22;17730;53.552;9.940;2023-04-25T07:14:24;7.80;99.90
31074;DHT22;17730;53.552;9.940;2023-04-25T07:16:49;7.80;99.90
31074;DHT22;17730;53.552;9.940;2023-04-25T07:19:15;7.80;99.90
31074;DHT22;17730;53.552;9.940;2023-04-25T07:21:40;8.10;99.90
31074;DHT22;17730;53.552;9.940;2023-04-25T07:24:06;8.20;99.90
31074;DHT22;17730;53.552;9.940;2023-04-25T07:26:31;8.30;99.90
31074;DHT22;17730;53.552;9.940;2023-04-25T07:28:57;8.20;99.90
31074;DHT22;17730;53.552;9.940;2023-04-25T07:31:22;8.00;99.90
31074;DHT22;17730;53.552;9.940;2023-04-25T07:33:48;8.00;99.90
31074;DHT22;17730;53.552;9.940;2023-04-25T07:36:13;8.20;99.90
31074;DHT22;17730;53.552;9.940;2023-04-25T07:38:40;8.30;99.90
31074;DHT22;17730;53.552;9.940;2023-04-25T07:41:06;8.30;99.90
31074;DHT22;17730;53.552;9.940;2023-04-25T07:43:31;8.40;99.90
31074;DHT22;17730;53.552;9.940;2023-04-25T07:45:57;8.50;99.90
31074;DHT22;17730;53.552;9.940;2023-04-25T07:48:22;8.60;99.90
31074;DHT22;17730;53.552;9.940;2023-04-25T07:50:48;8.70;99.90
31074;DHT22;17730;53.552;9.940;2023-04-25T07:53:13;8.80;99.90
31074;DHT22;17730;53.552;9.940;2023-04-25T07:55:39;8.80;99.90
31074;DHT22;17730;53.552;9.940;2023-04-25T07:58:05;8.90;99.90
31074;DHT22;17730;53.552;9.940;2023-04-25T08:00:31;9.20;99.90
31074;DHT22;17730;53.552;9.940;2023-04-25T08:02:56;9.30;99.90
31074;DHT22;17730;53.552;9.940;2023-04-25T08:05:22;9.40;99.90
31074;DHT22;17730;53.552;9.940;2023-04-25T08:07:47;9.30;99.90
31074;DHT22;17730;53.552;9.940;2023-04-25T08:10:13;9.10;99.90
31074;DHT22;17730;53.552;9.940;2023-04-25T08:12:39;9.00;99.90
31074;DHT22;17730;53.552;9.940;2023-04-25T08:15:05;9.00;99.90
31074;DHT22;17730;53.552;9.940;2023-04-25T08:17:30;9.00;99.90
31074;DHT22;17730;53.552;9.940;2023-04-25T08:19:56;8.90;99.90
31074;DHT22;17730;53.552;9.940;2023-04-25T08:22:22;8.90;99.90
31074;DHT22;17730;53.552;9.940;2023-04-25T08:24:47;9.00;99.90
31074;DHT22;17730;53.552;9.940;2023-04-25T08:27:13;8.90;99.90
31074;DHT22;17730;53.552;9.940;2023-04-25T08:29:39;9.10;99.90
31074;DHT22;17730;53.552;9.940;2023-04-25T08:32:04;9.00;99.90
31074;DHT22;17730;53.552;9.940;2023-04-25T08:34:30;9.00;99.90
31074;DHT22;17730;53.552;9.940;2023-04-25T08:36:55;9.20;99.90
31074;DHT22;17730;53.552;9.940;2023-04-25T08:39:21;9.20;99.90
31074;DHT22;17730;53.552;9.940;2023-04-25T08:41:46;9.00;99.90
31074;DHT22;17730;53.552;9.940;2023-04-25T08:44:12;9.00;99.90
31074;DHT22;17730;53.552;9.940;2023-04-25T08:46:38;9.10;99.90
31074;DHT22;17730;53.552;9.940;2023-04-25T08:49:05;9.10;99.90
31074;DHT22;17730;53.552;9.940;2023-04-25T08:51:32;9.20;99.90
31074;DHT22;17730;53.552;9.940;2023-04-25T08:54:04;9.20;99.90
31074;DHT22;17730;53.552;9.940;2023-04-25T08:56:33;9.20;99.90
31074;DHT22;17730;53.552;9.940;2023-04-25T08:59:00;9.00;99.90
31074;DHT22;17730;53.552;9.940;2023-04-25T09:01:27;8.60;99.90
31074;DHT22;17730;53.552;9.940;2023-04-25T09:03:52;8.40;99.90
31074;DHT22;17730;53.552;9.940;2023-04-25T09:06:18;8.60;99.90
31074;DHT22;17730;53.552;9.940;2023-04-25T09:08:44;8.60;99.90
31074;DHT22;17730;53.552;9.940;2023-04-25T09:11:10;8.40;99.90
31074;DHT22;17730;53.552;9.940;2023-04-25T09:13:35;8.20;99.90
31074;DHT22;17730;53.552;9.940;2023-04-25T09:16:01;8.00;99.90
31074;DHT22;17730;53.552;9.940;2023-04-25T09:21:04;8.40;99.90
31074;DHT22;17730;53.552;9.940;2023-04-25T09:23:30;8.50;99.90
31074;DHT22;17730;53.552;9.940;2023-04-25T09:25:58;8.70;99.90
31074;DHT22;17730;53.552;9.940;2023-04-25T09:28:26;8.70;99.90
31074;DHT22;17730;53.552;9.940;2023-04-25T09:30:56;8.70;99.90
31074;DHT22;17730;53.552;9.940;2023-04-25T09:33:29;9.10;99.90
31074;DHT22;17730;53.552;9.940;2023-04-25T09:36:01;9.60;99.60
31074;DHT22;17730;53.552;9.940;2023-04-25T09:38:26;9.60;98.90
31074;DHT22;17730;53.552;9.940;2023-04-25T09:40:52;9.60;99.40
31074;DHT22;17730;53.552;9.940;2023-04-25T09:43:24;9.30;99.90
31074;DHT22;17730;53.552;9.940;2023-04-25T09:45:50;8.80;99.90
31074;DHT22;17730;53.552;9.940;2023-04-25T09:48:19;8.60;99.90
31074;DHT22;17730;53.552;9.940;2023-04-25T09:53:30;8.70;99.90
31074;DHT22;17730;53.552;9.940;2023-04-25T09:55:57;8.80;99.90
31074;DHT22;17730;53.552;9.940;2023-04-25T09:58:25;8.50;99.90
31074;DHT22;17730;53.552;9.940;2023-04-25T10:00:51;8.50;99.90
31074;DHT22;17730;53.552;9.940;2023-04-25T10:03:17;8.40;99.90
31074;DHT22;17730;53.552;9.940;2023-04-25T10:05:43;8.60;99.90
31074;DHT22;17730;53.552;9.940;2023-04-25T10:08:08;8.80;99.90
31074;DHT22;17730;53.552;9.940;2023-04-25T10:10:34;8.90;99.90
31074;DHT22;17730;53.552;9.940;2023-04-25T10:13:04;8.90;99.90
31074;DHT22;17730;53.552;9.940;2023-04-25T10:15:31;8.90;99.90
31074;DHT22;17730;53.552;9.940;2023-04-25T10:17:58;9.10;99.90
31074;DHT22;17730;53.552;9.940;2023-04-25T10:20:23;9.30;98.20
31074;DHT22;17730;53.552;9.940;2023-04-25T10:22:49;9.00;97.20
31074;DHT22;17730;53.552;9.940;2023-04-25T10:25:19;9.00;97.40
31074;DHT22;17730;53.552;9.940;2023-04-25T10:27:44;9.00;97.00
31074;DHT22;17730;53.552;9.940;2023-04-25T10:30:13;9.20;97.70
31074;DHT22;17730;53.552;9.940;2023-04-25T10:32:43;9.30;97.60
31074;DHT22;17730;53.552;9.940;2023-04-25T10:35:19;9.50;98.20
31074;DHT22;17730;53.552;9.940;2023-04-25T10:38:27;9.40;98.50
31074;DHT22;17730;53.552;9.940;2023-04-25T10:40:33;9.40;98.90
31074;DHT22;17730;53.552;9.940;2023-04-25T10:45:52;9.70;99.50
31074;DHT22;17730;53.552;9.940;2023-04-25T10:48:28;9.80;98.50
31074;DHT22;17730;53.552;9.940;2023-04-25T10:51:38;9.90;98.70
31074;DHT22;17730;53.552;9.940;2023-04-25T10:53:39;10.00;99.00
31074;DHT22;17730;53.552;9.940;2023-04-25T10:56:17;10.10;97.40
31074;DHT22;17730;53.552;9.940;2023-04-25T10:58:44;10.10;97.10
31074;DHT22;17730;53.552;9.940;2023-04-25T11:01:11;9.80;98.00
31074;DHT22;17730;53.552;9.940;2023-04-25T11:03:40;10.10;98.60
31074;DHT22;17730;53.552;9.940;2023-04-25T11:06:09;10.00;98.70
31074;DHT22;17730;53.552;9.940;2023-04-25T11:08:43;10.00;99.30
31074;DHT22;17730;53.552;9.940;2023-04-25T11:11:12;9.90;99.50
31074;DHT22;17730;53.552;9.940;2023-04-25T11:13:38;9.70;99.90
31074;DHT22;17730;53.552;9.940;2023-04-25T11:16:06;9.50;99.40
31074;DHT22;17730;53.552;9.940;2023-04-25T11:18:32;9.80;98.70
31074;DHT22;17730;53.552;9.940;2023-04-25T11:20:59;10.10;98.10
31074;DHT22;17730;53.552;9.940;2023-04-25T11:23:25;10.60;97.30
31074;DHT22;17730;53.552;9.940;2023-04-25T11:25:51;10.40;96.30
31074;DHT22;17730;53.552;9.940;2023-04-25T11:28:21;10.20;97.60
31074;DHT22;17730;53.552;9.940;2023-04-25T11:30:48;10.70;97.40
31074;DHT22;17730;53.552;9.940;2023-04-25T11:33:15;11.00;96.30
31074;DHT22;17730;53.552;9.940;2023-04-25T11:35:41;10.40;96.70
31074;DHT22;17730;53.552;9.940;2023-04-25T11:38:06;9.30;99.20
31074;DHT22;17730;53.552;9.940;2023-04-25T11:40:32;8.20;99.90
31074;DHT22;17730;53.552;9.940;2023-04-25T11:42:59;8.00;99.90
31074;DHT22;17730;53.552;9.940;2023-04-25T11:45:25;7.60;99.90
31074;DHT22;17730;53.552;9.940;2023-04-25T11:47:50;7.60;99.90
31074;DHT22;17730;53.552;9.940;2023-04-25T11:50:16;7.80;99.90
31074;DHT22;17730;53.552;9.940;2023-04-25T11:52:46;7.80;99.90
31074;DHT22;17730;53.552;9.940;2023-04-25T11:55:15;7.80;99.90
31074;DHT22;17730;53.552;9.940;2023-04-25T11:57:41;8.00;99.90
31074;DHT22;17730;53.552;9.940;2023-04-25T12:00:17;8.10;99.90
31074;DHT22;17730;53.552;9.940;2023-04-25T12:02:44;8.20;99.90
31074;DHT22;17730;53.552;9.940;2023-04-25T12:05:10;8.50;99.90
31074;DHT22;17730;53.552;9.940;2023-04-25T12:07:36;8.90;99.90
31074;DHT22;17730;53.552;9.940;2023-04-25T12:10:06;9.20;99.90
31074;DHT22;17730;53.552;9.940;2023-04-25T12:12:33;9.50;99.90
31074;DHT22;17730;53.552;9.940;2023-04-25T12:15:08;9.50;99.90
31074;DHT22;17730;53.552;9.940;2023-04-25T12:17:34;9.90;98.10
31074;DHT22;17730;53.552;9.940;2023-04-25T12:20:00;10.20;96.50
31074;DHT22;17730;53.552;9.940;2023-04-25T12:22:30;10.60;95.10
31074;DHT22;17730;53.552;9.940;2023-04-25T12:24:57;10.50;93.00
31074;DHT22;17730;53.552;9.940;2023-04-25T12:27:23;10.40;91.90
31074;DHT22;17730;53.552;9.940;2023-04-25T12:29:52;10.10;92.10
31074;DHT22;17730;53.552;9.940;2023-04-25T12:32:17;10.00;93.30
31074;DHT22;17730;53.552;9.940;2023-04-25T12:34:43;9.90;93.40
31074;DHT22;17730;53.552;9.940;2023-04-25T12:37:08;9.80;93.80
31074;DHT22;17730;53.552;9.940;2023-04-25T12:39:34;9.80;94.70
31074;DHT22;17730;53.552;9.940;2023-04-25T12:41:59;10.00;94.50
31074;DHT22;17730;53.552;9.940;2023-04-25T12:44:25;10.30;91.50
31074;DHT22;17730;53.552;9.940;2023-04-25T12:46:50;10.30;91.80
31074;DHT22;17730;53.552;9.940;2023-04-25T12:49:16;10.30;91.80
31074;DHT22;17730;53.552;9.940;2023-04-25T12:51:42;10.20;91.70
31074;DHT22;17730;53.552;9.940;2023-04-25T12:54:07;10.00;92.40
31074;DHT22;17730;53.552;9.940;2023-04-25T12:56:33;9.80;95.80
31074;DHT22;17730;53.552;9.940;2023-04-25T12:58:59;9.70;97.70
31074;DHT22;17730;53.552;9.940;2023-04-25T13:01:25;9.50;98.80
31074;DHT22;17730;53.552;9.940;2023-04-25T13:03:50;9.30;98.90
31074;DHT22;17730;53.552;9.940;2023-04-25T13:06:16;9.30;99.20
31074;DHT22;17730;53.552;9.940;2023-04-25T13:08:43;9.40;98.00
31074;DHT22;17730;53.552;9.940;2023-04-25T13:11:08;9.50;96.60
31074;DHT22;17730;53.552;9.940;2023-04-25T13:13:34;9.70;95.50
31074;DHT22;17730;53.552;9.940;2023-04-25T13:16:00;9.60;94.90
31074;DHT22;17730;53.552;9.940;2023-04-25T13:18:27;9.30;98.30
31074;DHT22;17730;53.552;9.940;2023-04-25T13:20:53;8.20;99.90
31074;DHT22;17730;53.552;9.940;2023-04-25T13:23:19;7.40;99.90
31074;DHT22;17730;53.552;9.940;2023-04-25T13:25:45;7.10;99.90
31074;DHT22;17730;53.552;9.940;2023-04-25T13:28:11;7.20;99.90
31074;DHT22;17730;53.552;9.940;2023-04-25T13:30:36;7.30;99.90
31074;DHT22;17730;53.552;9.940;2023-04-25T13:33:02;7.60;99.90
31074;DHT22;17730;53.552;9.940;2023-04-25T13:35:29;8.00;99.90
31074;DHT22;17730;53.552;9.940;2023-04-25T13:37:55;8.10;99.90
31074;DHT22;17730;53.552;9.940;2023-04-25T13:40:21;8.40;99.90
31074;DHT22;17730;53.552;9.940;2023-04-25T13:42:47;8.60;99.90
31074;DHT22;17730;53.552;9.940;2023-04-25T13:45:12;8.90;99.90
31074;DHT22;17730;53.552;9.940;2023-04-25T13:47:38;9.10;99.90
31074;DHT22;17730;53.552;9.940;2023-04-25T13:50:04;9.10;99.90
31074;DHT22;17730;53.552;9.940;2023-04-25T13:52:31;8.60;99.90
31074;DHT22;17730;53.552;9.940;2023-04-25T13:54:57;8.30;99.90
31074;DHT22;17730;53.552;9.940;2023-04-25T13:57:22;7.40;99.90
31074;DHT22;17730;53.552;9.940;2023-04-25T13:59:48;6.70;99.90
31074;DHT22;17730;53.552;9.940;2023-04-25T14:02:14;6.60;99.90
31074;DHT22;17730;53.552;9.940;2023-04-25T14:04:40;6.60;99.90
31074;DHT22;17730;53.552;9.940;2023-04-25T14:07:05;6.70;99.90
31074;DHT22;17730;53.552;9.940;2023-04-25T14:09:31;7.00;99.90
31074;DHT22;17730;53.552;9.940;2023-04-25T14:11:56;7.20;99.90
31074;DHT22;17730;53.552;9.940;2023-04-25T14:14:22;7.50;99.90
31074;DHT22;17730;53.552;9.940;2023-04-25T14:16:48;7.80;99.90
31074;DHT22;17730;53.552;9.940;2023-04-25T14:19:15;8.00;99.90
31074;DHT22;17730;53.552;9.940;2023-04-25T14:21:41;8.10;99.90
31074;DHT22;17730;53.552;9.940;2023-04-25T14:24:07;8.20;99.90
31074;DHT22;17730;53.552;9.940;2023-04-25T14:26:33;8.30;99.90
31074;DHT22;17730;53.552;9.940;2023-04-25T14:28:59;8.50;99.90
31074;DHT22;17730;53.552;9.940;2023-04-25T14:31:24;8.70;99.90
31074;DHT22;17730;53.552;9.940;2023-04-25T14:33:50;8.80;99.90
31074;DHT22;17730;53.552;9.940;2023-04-25T14:36:16;8.90;99.90
31074;DHT22;17730;53.552;9.940;2023-04-25T14:38:41;8.90;99.90
31074;DHT22;17730;53.552;9.940;2023-04-25T14:41:07;9.00;99.90
31074;DHT22;17730;53.552;9.940;2023-04-25T14:43:32;9.00;99.90
31074;DHT22;17730;53.552;9.940;2023-04-25T14:45:58;9.10;99.90
31074;DHT22;17730;53.552;9.940;2023-04-25T14:48:23;9.20;99.90
31074;DHT22;17730;53.552;9.940;2023-04-25T14:50:49;9.40;99.90
31074;DHT22;17730;53.552;9.940;2023-04-25T14:53:14;9.40;99.90
31074;DHT22;17730;53.552;9.940;2023-04-25T14:55:40;9.60;99.70
31074;DHT22;17730;53.552;9.940;2023-04-25T14:58:05;9.80;98.90
31074;DHT22;17730;53.552;9.940;2023-04-25T15:00:32;9.60;96.60
31074;DHT22;17730;53.552;9.940;2023-04-25T15:02:58;9.70;96.90
31074;DHT22;17730;53.552;9.940;2023-04-25T15:05:23;9.70;96.30
31074;DHT22;17730;53.552;9.940;2023-04-25T15:07:49;9.50;95.40
31074;DHT22;17730;53.552;9.940;2023-04-25T15:10:16;9.30;96.90
31074;DHT22;17730;53.552;9.940;2023-04-25T15:12:45;9.20;99.50
31074;DHT22;17730;53.552;9.940;2023-04-25T15:15:11;8.80;99.90
31074;DHT22;17730;53.552;9.940;2023-04-25T15:17:40;8.50;99.90
31074;DHT22;17730;53.552;9.940;2023-04-25T15:20:06;8.30;99.90
31074;DHT22;17730;53.552;9.940;2023-04-25T15:22:32;8.40;99.90
31074;DHT22;17730;53.552;9.940;2023-04-25T15:24:57;8.60;99.90
31074;DHT22;17730;53.552;9.940;2023-04-25T15:27:23;8.70;99.90
31074;DHT22;17730;53.552;9.940;2023-04-25T15:29:48;8.70;99.90
31074;DHT22;17730;53.552;9.940;2023-04-25T15:32:14;8.70;99.90
31074;DHT22;17730;53.552;9.940;2023-04-25T15:34:40;8.90;99.90
31074;DHT22;17730;53.552;9.940;2023-04-25T15:37:05;9.00;99.90
31074;DHT22;17730;53.552;9.940;2023-04-25T15:39:31;9.10;99.90
31074;DHT22;17730;53.552;9.940;2023-04-25T15:41:56;9.30;99.90
31074;DHT22;17730;53.552;9.940;2023-04-25T15:44:23;9.40;99.90
31074;DHT22;17730;53.552;9.940;2023-04-25T15:46:49;9.40;99.10